Time;durP1;ratioP1;P1;durP2;ratioP2;P2;SDS_P1;SDS_P2;PMS_P1;PMS_P2;Temp;Humidity;BMP_temperature;BMP_pressure;BME280_temperature;BME280_humidity;BME280_pressure;Samples;Min_cycle;Max_cycle;Signal;HPM_P1;HPM_P2
2024/01/06 00:03:25;;;;;;;6.68;2.10;;;;;;;5.56;100.00;98571.53;12213317;19;20449;-84
2024/01/06 00:07:27;;;;;;;7.27;1.50;;;;;;;5.62;100.00;98577.88;12211873;19;20006;-83
2024/01/06 00:11:29;;;;;;;2.67;1.57;;;;;;;5.58;100.00;98576.72;12189301;19;20014;-83
2024/01/06 00:15:31;;;;;;;5.10;1.88;;;;;;;5.48;100.00;98574.66;12209866;19;20431;-83
2024/01/06 00:19:33;;;;;;;6.40;1.60;;;;;;;5.34;100.00;98576.03;12215555;19;20015;-84
2024/01/06 00:23:35;;;;;;;4.63;1.33;;;;;;;5.23;100.00;98577.75;12192922;19;20007;-84
2024/01/06 00:27:37;;;;;;;2.50;1.37;;;;;;;5.14;100.00;98590.97;12249636;19;20011;-83
2024/01/06 00:31:39;;;;;;;5.18;1.60;;;;;;;5.06;100.00;98588.66;12267620;19;20010;-84
2024/01/06 00:35:41;;;;;;;4.20;1.58;;;;;;;5.00;100.00;98593.19;12239525;19;20432;-83
2024/01/06 00:39:43;;;;;;;9.23;2.47;;;;;;;5.00;100.00;98597.81;12226130;19;20014;-83
2024/01/06 00:43:44;;;;;;;2.67;2.13;;;;;;;5.02;100.00;98587.47;12200915;19;20023;-84
2024/01/06 00:47:46;;;;;;;4.00;1.92;;;;;;;5.12;100.00;98589.59;12221086;19;20018;-84
2024/01/06 00:51:48;;;;;;;4.03;2.00;;;;;;;5.25;100.00;98589.28;12216964;19;20018;-83
2024/01/06 00:55:50;;;;;;;5.13;2.03;;;;;;;5.41;100.00;98604.03;12193113;19;20010;-84
2024/01/06 00:59:52;;;;;;;3.42;1.75;;;;;;;5.52;100.00;98605.88;12216493;19;20002;-84
2024/01/06 01:03:54;;;;;;;7.63;1.88;;;;;;;5.63;100.00;98601.41;12225152;19;20007;-84
2024/01/06 01:07:55;;;;;;;2.97;1.52;;;;;;;5.70;100.00;98604.81;12195158;19;20010;-84
2024/01/06 01:11:57;;;;;;;5.78;2.20;;;;;;;5.80;100.00;98606.88;12210703;19;20022;-85
2024/01/06 01:15:59;;;;;;;7.20;2.20;;;;;;;5.86;100.00;98614.94;12211825;19;20014;-83
2024/01/06 01:20:01;;;;;;;11.02;2.40;;;;;;;5.91;100.00;98614.16;12192608;19;20088;-85
2024/01/06 01:24:03;;;;;;;7.32;2.03;;;;;;;6.00;100.00;98611.88;12214296;19;20010;-84
2024/01/06 01:28:05;;;;;;;9.82;2.33;;;;;;;6.07;100.00;98613.38;12249482;19;20438;-84
2024/01/06 01:32:07;;;;;;;8.05;2.10;;;;;;;6.10;100.00;98618.34;12232635;19;20019;-84
2024/01/06 01:36:09;;;;;;;5.27;2.23;;;;;;;6.15;100.00;98623.88;12247411;19;20014;-83
2024/01/06 01:40:11;;;;;;;5.22;2.65;;;;;;;6.13;100.00;98623.31;12242721;19;20024;-82
2024/01/06 01:44:12;;;;;;;7.22;2.35;;;;;;;6.16;100.00;98630.19;12192484;19;20010;-84
2024/01/06 01:48:14;;;;;;;6.35;2.03;;;;;;;6.20;100.00;98636.00;12210049;19;20096;-84
2024/01/06 01:52:16;;;;;;;7.88;2.05;;;;;;;6.18;100.00;98641.69;12212356;19;20340;-84
2024/01/06 01:56:19;;;;;;;4.45;2.10;;;;;;;6.14;100.00;98644.13;12188054;19;20014;-84
2024/01/06 02:00:21;;;;;;;6.05;2.00;;;;;;;6.16;100.00;98638.41;12202740;19;20011;-84
2024/01/06 02:04:26;;;;;;;6.20;2.38;;;;;;;6.10;100.00;98625.75;12210655;19;20074;-84
2024/01/06 02:08:28;;;;;;;7.28;2.05;;;;;;;6.05;100.00;98637.41;12186453;19;20010;-84
2024/01/06 02:12:29;;;;;;;6.88;1.95;;;;;;;6.08;100.00;98644.28;12205257;19;20471;-84
2024/01/06 02:16:31;;;;;;;6.60;1.70;;;;;;;6.08;100.00;98636.91;12206453;19;20015;-84
2024/01/06 02:20:34;;;;;;;5.80;1.90;;;;;;;6.10;100.00;98628.47;12184643;19;20086;-83
2024/01/06 02:24:35;;;;;;;5.60;2.58;;;;;;;6.10;100.00;98634.75;12206610;19;20027;-83
2024/01/06 02:28:37;;;;;;;8.13;2.28;;;;;;;6.07;100.00;98634.44;12208283;19;20101;-83
2024/01/06 02:32:39;;;;;;;3.70;1.77;;;;;;;6.10;100.00;98636.69;12181273;19;20023;-84
2024/01/06 02:36:40;;;;;;;4.32;1.90;;;;;;;6.13;100.00;98645.19;12204592;19;20022;-83
2024/01/06 02:40:42;;;;;;;6.30;2.00;;;;;;;6.16;100.00;98655.66;12182720;19;20031;-84
2024/01/06 02:44:44;;;;;;;6.47;1.95;;;;;;;6.17;100.00;98667.41;12209245;19;20003;-84
2024/01/06 02:48:46;;;;;;;3.65;2.03;;;;;;;6.23;100.00;98663.66;12218433;19;20480;-83
2024/01/06 02:52:48;;;;;;;5.67;2.10;;;;;;;6.26;100.00;98665.09;12192709;19;20010;-83
2024/01/06 02:56:50;;;;;;;6.05;1.98;;;;;;;6.27;100.00;98659.34;12215101;19;20007;-84
2024/01/06 03:00:51;;;;;;;6.28;2.15;;;;;;;6.29;100.00;98656.38;12216558;19;20561;-83
2024/01/06 03:04:54;;;;;;;4.38;1.80;;;;;;;6.31;100.00;98665.16;12207184;19;20018;-84
2024/01/06 03:08:56;;;;;;;7.38;2.00;;;;;;;6.29;100.00;98670.88;12218869;19;20010;-84
2024/01/06 03:12:58;;;;;;;4.38;1.65;;;;;;;6.30;100.00;98669.78;12212295;19;20014;-83
2024/01/06 03:16:59;;;;;;;7.07;1.38;;;;;;;6.32;100.00;98678.59;12193921;19;20478;-82
2024/01/06 03:21:01;;;;;;;3.28;1.60;;;;;;;6.32;100.00;98673.13;12217212;19;20011;-83
2024/01/06 03:25:03;;;;;;;3.83;1.73;;;;;;;6.23;100.00;98674.63;12216555;19;20018;-83
2024/01/06 03:29:06;;;;;;;9.43;2.42;;;;;;;6.25;100.00;98666.19;12193018;19;20009;-82
2024/01/06 03:33:07;;;;;;;5.40;1.93;;;;;;;6.22;100.00;98670.22;12211671;19;20007;-82
2024/01/06 03:37:09;;;;;;;4.45;1.92;;;;;;;6.22;100.00;98678.44;12213862;19;20409;-82
2024/01/06 03:41:11;;;;;;;7.35;2.20;;;;;;;6.24;100.00;98679.00;12190295;19;20019;-82
2024/01/06 03:45:13;;;;;;;4.25;2.30;;;;;;;6.28;100.00;98674.72;12212964;19;20006;-82
2024/01/06 03:49:18;;;;;;;6.47;1.93;;;;;;;6.30;100.00;98685.38;12211975;19;20364;-83
2024/01/06 03:53:20;;;;;;;6.68;2.17;;;;;;;6.30;100.00;98694.41;12189726;19;20014;-82
2024/01/06 03:57:25;;;;;;;5.65;2.20;;;;;;;6.31;100.00;98703.47;12210958;19;20206;-82
2024/01/06 04:01:28;;;;;;;9.25;2.20;;;;;;;6.34;100.00;98705.72;12210744;19;20705;-82
2024/01/06 04:05:30;;;;;;;6.72;1.75;;;;;;;6.34;100.00;98700.25;12189026;19;20021;-82
2024/01/06 04:09:32;;;;;;;4.85;2.05;;;;;;;6.32;100.00;98708.69;12213655;19;20015;-82
2024/01/06 04:13:34;;;;;;;10.75;1.80;;;;;;;6.33;100.00;98710.34;12211937;19;20003;-82
2024/01/06 04:17:35;;;;;;;7.40;2.05;;;;;;;6.31;100.00;98711.69;12188819;19;20014;-82
2024/01/06 04:21:37;;;;;;;4.28;1.90;;;;;;;6.29;100.00;98703.72;12212110;19;20007;-82
2024/01/06 04:25:39;;;;;;;6.55;2.05;;;;;;;6.29;100.00;98714.66;12211490;19;20701;-82
2024/01/06 04:29:41;;;;;;;3.40;1.80;;;;;;;6.26;100.00;98711.59;12190910;19;20019;-82
2024/01/06 04:33:43;;;;;;;5.28;2.10;;;;;;;6.22;100.00;98711.25;12216837;19;20034;-83
2024/01/06 04:37:45;;;;;;;8.33;2.53;;;;;;;6.22;100.00;98705.78;12212614;19;20597;-83
2024/01/06 04:41:46;;;;;;;5.30;1.95;;;;;;;6.22;100.00;98703.06;12187923;19;20529;-82
2024/01/06 04:45:50;;;;;;;9.68;1.98;;;;;;;6.22;100.00;98711.25;12207893;19;20007;-83
2024/01/06 04:49:51;;;;;;;5.53;2.38;;;;;;;6.24;100.00;98705.53;12208262;19;20050;-83
2024/01/06 04:53:53;;;;;;;5.95;2.13;;;;;;;6.25;100.00;98707.22;12188359;19;20484;-82
2024/01/06 04:57:55;;;;;;;3.35;2.00;;;;;;;6.27;100.00;98707.78;12209241;19;20015;-82
2024/01/06 05:01:58;;;;;;;4.30;2.10;;;;;;;6.25;100.00;98699.81;12197660;19;20010;-83
2024/01/06 05:05:59;;;;;;;4.18;1.80;;;;;;;6.27;100.00;98703.13;12227124;19;20016;-83
2024/01/06 05:10:02;;;;;;;9.95;2.50;;;;;;;6.26;100.00;98709.69;12209371;19;20023;-83
2024/01/06 05:14:03;;;;;;;5.53;2.00;;;;;;;6.25;100.00;98712.69;12186611;19;20020;-83
2024/01/06 05:18:05;;;;;;;4.53;1.95;;;;;;;6.25;100.00;98710.78;12208454;19;20263;-83
2024/01/06 05:22:07;;;;;;;6.90;1.93;;;;;;;6.32;100.00;98713.34;12204958;19;20017;-83
2024/01/06 05:26:09;;;;;;;4.82;2.38;;;;;;;6.32;100.00;98707.84;12190483;19;20038;-82
2024/01/06 05:30:11;;;;;;;4.80;1.98;;;;;;;6.32;100.00;98710.59;12209531;19;20049;-83
2024/01/06 05:34:13;;;;;;;2.27;1.37;;;;;;;6.27;100.00;98715.97;12209547;19;20007;-83
2024/01/06 05:38:17;;;;;;;6.18;2.35;;;;;;;6.26;100.00;98725.28;12194103;19;20380;-83
2024/01/06 05:42:18;;;;;;;4.70;2.47;;;;;;;6.30;100.00;98723.69;12211885;19;20006;-82
2024/01/06 05:46:22;;;;;;;7.20;2.40;;;;;;;6.31;100.00;98731.66;12212654;19;20023;-83
2024/01/06 05:50:23;;;;;;;5.70;2.35;;;;;;;6.28;100.00;98737.63;12193698;19;20014;-82
2024/01/06 05:54:25;;;;;;;5.18;2.55;;;;;;;6.32;100.00;98738.78;12215979;19;20007;-83
2024/01/06 05:58:27;;;;;;;3.80;2.27;;;;;;;6.34;100.00;98733.06;12211000;19;20372;-83
2024/01/06 06:02:30;;;;;;;6.43;1.90;;;;;;;6.37;100.00;98741.59;12184347;19;20235;-83
2024/01/06 06:06:32;;;;;;;5.13;2.30;;;;;;;6.37;100.00;98747.06;12214327;19;20670;-82
2024/01/06 06:10:41;;;;;;;;;;;;;;;6.37;100.00;98755.28;12210842;19;20025;-82
2024/01/06 06:14:43;;;;;;;6.97;2.28;;;;;;;6.41;100.00;98757.53;12188214;19;19915;-83
2024/01/06 06:18:45;;;;;;;5.95;2.67;;;;;;;6.38;100.00;98759.69;12212159;19;20094;-83
2024/01/06 06:22:48;;;;;;;7.60;2.27;;;;;;;6.39;100.00;98768.72;12205048;19;20034;-84
2024/01/06 06:26:49;;;;;;;9.20;2.58;;;;;;;6.37;100.00;98768.97;12188817;19;20033;-83
2024/01/06 06:30:51;;;;;;;7.53;2.38;;;;;;;6.38;100.00;98769.78;12205157;19;20639;-82
2024/01/06 06:34:53;;;;;;;3.83;1.77;;;;;;;6.42;100.00;98772.84;12202639;19;20010;-83
2024/01/06 06:38:57;;;;;;;7.75;2.72;;;;;;;6.44;100.00;98785.22;12181466;19;20010;-82
2024/01/06 06:42:59;;;;;;;6.47;2.28;;;;;;;6.45;100.00;98784.13;12200150;19;20355;-83
2024/01/06 06:47:01;;;;;;;6.28;2.35;;;;;;;6.49;100.00;98793.53;12181466;19;20014;-82
2024/01/06 06:51:03;;;;;;;4.03;2.65;;;;;;;6.48;100.00;98796.50;12207389;19;20514;-83
2024/01/06 06:55:05;;;;;;;5.20;2.43;;;;;;;6.46;100.00;98799.50;12205057;19;20106;-82
2024/01/06 06:59:07;;;;;;;4.22;2.45;;;;;;;6.48;100.00;98802.78;12182957;19;20027;-83
2024/01/06 07:03:08;;;;;;;7.15;2.83;;;;;;;6.47;100.00;98808.53;12224641;19;20010;-83
2024/01/06 07:07:10;;;;;;;8.02;3.03;;;;;;;6.40;100.00;98814.16;12220103;19;20873;-84
2024/01/06 07:11:14;;;;;;;6.40;2.88;;;;;;;6.41;100.00;98820.47;12185511;19;20018;-83
2024/01/06 07:15:16;;;;;;;5.78;3.33;;;;;;;6.43;100.00;98829.25;12207425;19;20019;-83
2024/01/06 07:19:18;;;;;;;6.75;2.95;;;;;;;6.43;100.00;98829.25;12208029;19;20014;-82
2024/01/06 07:23:20;;;;;;;5.93;2.33;;;;;;;6.45;100.00;98841.59;12188309;19;20518;-82
2024/01/06 07:27:22;;;;;;;7.45;2.85;;;;;;;6.39;100.00;98840.72;12215252;19;20007;-82
2024/01/06 07:31:33;;;;;;;5.45;2.28;;;;;;;6.42;100.00;98839.34;12266936;19;20022;-84
2024/01/06 07:35:35;;;;;;;5.82;3.13;;;;;;;6.44;100.00;98844.59;12257802;19;20010;-83
2024/01/06 07:39:36;;;;;;;6.95;2.70;;;;;;;6.44;100.00;98852.81;12256904;19;20019;-83
2024/01/06 07:43:38;;;;;;;6.22;3.70;;;;;;;6.49;100.00;98858.38;12225405;19;20030;-84
2024/01/06 07:47:40;;;;;;;7.75;2.97;;;;;;;6.56;100.00;98857.13;12196787;19;20023;-82
2024/01/06 07:51:42;;;;;;;6.40;3.10;;;;;;;6.57;100.00;98874.38;12223574;19;20106;-83
2024/01/06 07:55:43;;;;;;;5.28;3.22;;;;;;;6.56;100.00;98878.19;12222525;19;20713;-83
2024/01/06 07:59:45;;;;;;;6.45;3.28;;;;;;;6.58;100.00;98884.28;12199336;19;20010;-83
2024/01/06 08:03:47;;;;;;;6.57;3.15;;;;;;;6.58;100.00;98884.28;12217806;19;20792;-83
2024/01/06 08:07:51;;;;;;;7.20;2.80;;;;;;;6.61;100.00;98886.50;12224980;19;20014;-83
2024/01/06 08:11:53;;;;;;;7.10;3.13;;;;;;;6.64;100.00;98891.50;12195598;19;20488;-83
2024/01/06 08:15:55;;;;;;;6.85;3.00;;;;;;;6.73;100.00;98895.47;12215802;19;20023;-83
2024/01/06 08:19:56;;;;;;;9.43;2.83;;;;;;;6.80;100.00;98900.78;12196498;19;20027;-82
2024/01/06 08:23:58;;;;;;;6.25;3.42;;;;;;;6.83;100.00;98903.88;12215098;19;20006;-83
2024/01/06 08:28:00;;;;;;;9.05;3.13;;;;;;;6.83;100.00;98908.50;12216526;19;20007;-82
2024/01/06 08:32:02;;;;;;;6.83;3.73;;;;;;;6.88;100.00;98916.81;12189289;19;20106;-83
2024/01/06 08:36:05;;;;;;;11.40;3.77;;;;;;;6.86;100.00;98913.50;12212203;19;20099;-83
2024/01/06 08:40:08;;;;;;;9.18;3.47;;;;;;;6.83;100.00;98920.28;12211773;19;20371;-83
2024/01/06 08:44:09;;;;;;;10.65;3.63;;;;;;;6.88;100.00;98929.69;12191041;19;20011;-83
2024/01/06 08:48:13;;;;;;;9.38;3.50;;;;;;;6.96;100.00;98927.38;12212107;19;20034;-82
2024/01/06 08:52:15;;;;;;;7.32;3.33;;;;;;;7.01;100.00;98929.34;12212676;19;20582;-83
2024/01/06 08:56:17;;;;;;;7.45;4.05;;;;;;;7.02;100.00;98941.97;12191713;19;20018;-83
2024/01/06 09:00:19;;;;;;;12.10;4.30;;;;;;;7.03;100.00;98943.66;12222347;19;20395;-84
2024/01/06 09:04:21;;;;;;;10.57;3.80;;;;;;;7.00;100.00;98946.88;12230138;19;20014;-83
2024/01/06 09:08:24;;;;;;;9.27;3.78;;;;;;;7.01;100.00;98949.34;12199644;19;20022;-83
2024/01/06 09:12:25;;;;;;;;;;;;;;;7.05;100.00;98955.19;12219963;19;20107;-83
2024/01/06 09:16:28;;;;;;;7.75;4.50;;;;;;;7.05;100.00;98963.41;12221734;19;20335;-82
2024/01/06 09:20:30;;;;;;;9.27;3.83;;;;;;;7.19;100.00;98964.72;12193100;19;20010;-83
2024/01/06 09:24:33;;;;;;;9.47;4.77;;;;;;;7.38;100.00;98973.56;12216460;19;20010;-82
2024/01/06 09:28:35;;;;;;;16.50;5.18;;;;;;;7.46;100.00;98972.28;12216003;19;20014;-83
2024/01/06 09:32:37;;;;;;;9.75;4.22;;;;;;;7.53;100.00;98982.00;12188066;19;20014;-85
2024/01/06 09:36:39;;;;;;;7.28;4.43;;;;;;;7.60;100.00;98970.88;12211533;19;20078;-83
2024/01/06 09:40:44;;;;;;;10.75;4.40;;;;;;;7.66;100.00;98980.00;12213124;19;20010;-83
2024/01/06 09:44:46;;;;;;;7.80;3.70;;;;;;;7.62;100.00;98985.16;12186401;19;20010;-83
2024/01/06 09:48:51;;;;;;;7.00;3.10;;;;;;;7.60;100.00;98986.50;12213411;19;20021;-82
2024/01/06 09:53:03;;;;;;;8.15;4.53;;;;;;;7.69;100.00;98984.97;12213995;19;20021;-83
2024/01/06 09:57:06;;;;;;;12.05;4.10;;;;;;;7.69;100.00;98991.28;12189940;19;20014;-83
2024/01/06 10:01:08;;;;;;;12.05;5.03;;;;;;;7.63;100.00;99000.53;12210235;19;20027;-82
2024/01/06 10:05:12;;;;;;;;;;;;;;;7.57;100.00;99001.53;12188737;19;20067;-82
2024/01/06 10:09:14;;;;;;;;;;;;;;;7.54;100.00;99007.50;12212310;19;20286;-83
2024/01/06 10:13:17;;;;;;;8.57;4.03;;;;;;;7.43;100.00;99008.41;12209796;19;19916;-82
2024/01/06 10:17:19;;;;;;;7.28;4.63;;;;;;;7.33;100.00;99005.53;12184964;19;20014;-83
2024/01/06 10:21:21;;;;;;;10.35;4.53;;;;;;;7.26;100.00;99005.69;12209239;19;20010;-82
2024/01/06 10:25:24;;;;;;;10.45;5.20;;;;;;;7.22;100.00;99007.25;12211829;19;20039;-82
2024/01/06 10:29:27;;;;;;;12.18;5.40;;;;;;;7.26;100.00;99012.00;12188153;19;20352;-83
2024/01/06 10:33:29;;;;;;;11.80;5.50;;;;;;;7.26;100.00;99009.25;12207980;19;20031;-84
2024/01/06 10:37:30;;;;;;;14.97;5.87;;;;;;;7.30;100.00;98993.97;12208550;19;20003;-83
2024/01/06 10:41:34;;;;;;;9.88;5.00;;;;;;;7.34;100.00;98994.28;12190024;19;20082;-83
2024/01/06 10:45:36;;;;;;;16.35;5.57;;;;;;;7.38;100.00;98990.00;12213820;19;20084;-83
2024/01/06 10:49:39;;;;;;;9.13;4.97;;;;;;;7.43;100.00;98990.06;12225544;19;20022;-83
2024/01/06 10:53:41;;;;;;;;;;;;;;;7.56;100.00;98986.16;12209424;19;20006;-83
2024/01/06 10:57:44;;;;;;;7.30;4.30;;;;;;;7.69;100.00;98984.97;12241013;19;19922;-82
2024/01/06 11:01:47;;;;;;;11.25;4.38;;;;;;;7.75;100.00;98983.97;12226806;19;20501;-82
2024/01/06 11:05:49;;;;;;;11.43;5.00;;;;;;;7.76;100.00;98985.63;12198876;19;20015;-83
2024/01/06 11:10:02;;;;;;;8.70;4.32;;;;;;;7.85;100.00;98988.78;12254293;19;20018;-83
2024/01/06 11:14:24;;;;;;;9.30;4.65;;;;;;;8.07;100.00;98975.94;12254703;19;20037;-83
2024/01/06 11:18:40;;;;;;;9.15;4.63;;;;;;;8.26;100.00;98984.69;12266281;19;20010;-84
2024/01/06 11:22:45;;;;;;;12.63;5.15;;;;;;;8.46;100.00;98978.66;12260006;19;20025;-83
2024/01/06 11:26:52;;;;;;;7.85;4.93;;;;;;;8.52;100.00;98977.63;12228790;19;20026;-83
2024/01/06 11:31:09;;;;;;;12.43;5.18;;;;;;;8.54;100.00;98980.94;12229443;19;20509;-83
2024/01/06 11:35:13;;;;;;;13.60;5.68;;;;;;;8.52;100.00;98972.13;12204028;19;20025;-82
2024/01/06 11:39:40;;;;;;;10.52;5.15;;;;;;;8.60;100.00;98974.44;12222694;19;20023;-83
2024/01/06 11:43:42;;;;;;;12.25;5.55;;;;;;;8.67;100.00;98963.22;12219335;19;20351;-83
2024/01/06 11:47:48;;;;;;;7.65;4.82;;;;;;;8.74;100.00;98974.84;12196015;19;20046;-83
2024/01/06 11:51:50;;;;;;;7.85;4.82;;;;;;;8.88;100.00;98959.59;12217187;19;20800;-83
2024/01/06 11:55:52;;;;;;;10.18;5.43;;;;;;;8.95;100.00;98970.38;12220377;19;20010;-83
2024/01/06 11:59:54;;;;;;;7.95;4.28;;;;;;;9.02;100.00;98953.69;12197253;19;20553;-83
2024/01/06 12:03:57;;;;;;;12.00;4.90;;;;;;;9.06;100.00;98961.16;12216172;19;20014;-82
2024/01/06 12:08:06;;;;;;;8.80;4.93;;;;;;;9.16;100.00;98962.31;12216173;19;20010;-82
2024/01/06 12:12:10;;;;;;;8.57;4.78;;;;;;;9.24;100.00;98959.09;12191689;19;20002;-83
2024/01/06 12:16:12;;;;;;;9.82;4.55;;;;;;;9.23;100.00;98963.78;12212376;19;20011;-83
2024/01/06 12:20:14;;;;;;;9.70;4.78;;;;;;;9.20;100.00;98969.81;12190220;19;20432;-83
2024/01/06 12:24:18;;;;;;;12.13;4.87;;;;;;;9.09;100.00;98959.81;12210268;19;20002;-83
2024/01/06 12:28:20;;;;;;;10.48;4.95;;;;;;;8.97;100.00;98962.72;12213169;19;19999;-83
2024/01/06 12:32:22;;;;;;;9.63;4.63;;;;;;;8.87;100.00;98966.19;12188373;19;20026;-82
2024/01/06 12:36:24;;;;;;;11.98;5.03;;;;;;;8.73;100.00;98967.69;12209160;19;20881;-83
2024/01/06 12:40:28;;;;;;;12.77;5.10;;;;;;;8.58;100.00;98982.09;12210390;19;20010;-82
2024/01/06 12:44:32;;;;;;;10.77;5.15;;;;;;;8.51;100.00;98975.16;12188759;19;20495;-83
2024/01/06 12:48:34;;;;;;;10.52;4.97;;;;;;;8.58;100.00;98976.59;12211025;19;20597;-82
2024/01/06 12:52:37;;;;;;;7.93;4.37;;;;;;;8.64;100.00;98974.72;12211701;19;20018;-83
2024/01/06 12:56:40;;;;;;;13.65;5.45;;;;;;;8.66;100.00;98981.63;12191924;19;20054;-83
2024/01/06 13:00:42;;;;;;;10.88;4.32;;;;;;;8.57;100.00;98983.19;12209188;19;20025;-82
2024/01/06 13:04:44;;;;;;;13.35;5.20;;;;;;;8.50;100.00;98974.28;12212666;19;20078;-82
2024/01/06 13:08:46;;;;;;;7.65;4.85;;;;;;;8.49;100.00;98978.13;12188166;19;20037;-83
2024/01/06 13:12:48;;;;;;;10.60;5.53;;;;;;;8.39;100.00;98976.09;12206708;19;20038;-82
2024/01/06 13:16:53;;;;;;;10.45;5.03;;;;;;;8.31;100.00;98978.44;12208005;19;20010;-83
2024/01/06 13:20:55;;;;;;;12.55;5.60;;;;;;;8.38;100.00;98984.56;12188031;19;20007;-82
2024/01/06 13:24:58;;;;;;;12.18;5.90;;;;;;;8.48;100.00;98992.09;12209249;19;20347;-83
2024/01/06 13:29:01;;;;;;;12.02;5.20;;;;;;;8.54;100.00;99000.16;12213780;19;20011;-83
2024/01/06 13:33:04;;;;;;;12.55;6.25;;;;;;;8.52;100.00;99002.34;12193499;19;20011;-82
2024/01/06 13:37:07;;;;;;;12.02;5.60;;;;;;;8.49;100.00;98996.53;12218328;19;20006;-83
2024/01/06 13:41:09;;;;;;;11.35;6.03;;;;;;;8.42;100.00;99004.97;12211086;19;20018;-82
2024/01/06 13:45:12;;;;;;;13.98;6.25;;;;;;;8.33;100.00;99015.53;12189098;19;20027;-82
2024/01/06 13:49:14;;;;;;;;;;;;;;;8.26;100.00;99016.78;12211616;19;20036;-83
2024/01/06 13:53:16;;;;;;;15.15;6.47;;;;;;;8.18;100.00;99002.44;12190034;19;19978;-83
2024/01/06 13:57:17;;;;;;;12.68;6.30;;;;;;;8.19;100.00;99008.75;12209270;19;20417;-83
2024/01/06 14:01:20;;;;;;;11.80;6.10;;;;;;;8.17;100.00;99014.47;12209060;19;20006;-83
2024/01/06 14:05:22;;;;;;;11.65;6.30;;;;;;;8.13;100.00;99018.81;12190384;19;20035;-83
2024/01/06 14:09:24;;;;;;;11.23;6.07;;;;;;;8.10;100.00;99018.50;12213350;19;20015;-82
2024/01/06 14:13:26;;;;;;;12.18;5.70;;;;;;;8.06;100.00;99018.19;12211839;19;20224;-83
2024/01/06 14:17:30;;;;;;;14.68;6.15;;;;;;;8.09;100.00;99012.19;12193257;19;20014;-83
2024/01/06 14:21:32;;;;;;;12.57;5.30;;;;;;;8.15;100.00;99021.28;12209344;19;20010;-83
2024/01/06 14:25:34;;;;;;;12.52;5.55;;;;;;;8.19;100.00;99019.72;12207934;19;20379;-82
2024/01/06 14:29:36;;;;;;;10.77;5.20;;;;;;;8.16;100.00;99017.50;12185936;19;20023;-82
2024/01/06 14:33:37;;;;;;;10.97;5.37;;;;;;;8.14;100.00;99020.47;12209938;19;20688;-82
2024/01/06 14:37:39;;;;;;;12.38;5.47;;;;;;;8.14;100.00;99030.63;12209998;19;20018;-82
2024/01/06 14:41:41;;;;;;;12.93;6.38;;;;;;;8.20;100.00;99024.13;12232544;19;20023;-83
2024/01/06 14:45:43;;;;;;;11.95;5.88;;;;;;;8.19;100.00;99036.19;12282202;19;20013;-82
2024/01/06 14:49:45;;;;;;;10.27;5.70;;;;;;;8.10;100.00;99035.78;12277193;19;20007;-83
2024/01/06 14:53:47;;;;;;;15.63;5.93;;;;;;;8.09;100.00;99044.25;12213903;19;20010;-83
2024/01/06 14:57:48;;;;;;;15.40;6.72;;;;;;;8.04;100.00;99046.94;12219727;19;20011;-83
2024/01/06 15:01:50;;;;;;;12.57;5.85;;;;;;;8.04;100.00;99044.22;12217645;19;20015;-82
2024/01/06 15:05:52;;;;;;;14.98;6.72;;;;;;;8.03;100.00;99056.25;12196208;19;20078;-83
2024/01/06 15:09:54;;;;;;;10.00;5.45;;;;;;;7.99;100.00;99055.91;12220519;19;20585;-83
2024/01/06 15:13:56;;;;;;;14.25;6.35;;;;;;;7.97;100.00;99060.81;12218081;19;20368;-83
2024/01/06 15:17:58;;;;;;;10.63;6.10;;;;;;;7.88;100.00;99062.31;12195146;19;20007;-83
2024/01/06 15:22:00;;;;;;;10.68;6.43;;;;;;;7.85;100.00;99071.06;12214467;19;20014;-83
2024/01/06 15:26:03;;;;;;;9.90;5.40;;;;;;;7.74;100.00;99070.09;12218579;19;20018;-83
2024/01/06 15:30:08;;;;;;;16.08;7.90;;;;;;;7.72;100.00;99067.56;12194092;19;20015;-82
2024/01/06 15:34:11;;;;;;;16.58;7.20;;;;;;;7.71;100.00;99074.16;12216273;19;20011;-83
2024/01/06 15:38:13;;;;;;;15.50;8.13;;;;;;;7.70;100.00;99080.72;12217578;19;20007;-83
2024/01/06 15:42:14;;;;;;;13.95;8.00;;;;;;;7.71;100.00;99087.03;12195521;19;20014;-83
2024/01/06 15:46:17;;;;;;;14.68;8.30;;;;;;;7.68;100.00;99080.13;12224214;19;20007;-83
2024/01/06 15:50:18;;;;;;;15.20;8.00;;;;;;;7.66;100.00;99090.50;12204574;19;20024;-83
2024/01/06 15:54:20;;;;;;;16.20;8.90;;;;;;;7.63;100.00;99087.44;12220008;19;20011;-83
2024/01/06 15:58:24;;;;;;;17.17;8.98;;;;;;;7.58;100.00;99088.16;12215826;19;20351;-83
2024/01/06 16:02:27;;;;;;;19.98;9.18;;;;;;;7.50;100.00;99103.13;12195857;19;20015;-83
2024/01/06 16:06:30;;;;;;;;;;;;;;;7.30;100.00;99109.06;12219601;19;20480;-84
2024/01/06 16:10:36;;;;;;;16.48;7.15;;;;;;;7.16;100.00;99113.19;12209679;19;19907;-84
2024/01/06 16:14:38;;;;;;;14.18;7.15;;;;;;;7.10;100.00;99119.63;12188839;19;20039;-85
2024/01/06 16:18:40;;;;;;;16.25;7.57;;;;;;;7.09;100.00;99112.50;12206986;19;20011;-85
2024/01/06 16:22:42;;;;;;;17.63;7.90;;;;;;;7.10;100.00;99121.56;12207920;19;20040;-84
2024/01/06 16:26:45;;;;;;;21.58;8.88;;;;;;;7.03;100.00;99127.19;12185166;19;20010;-85
2024/01/06 16:30:46;;;;;;;16.60;8.45;;;;;;;7.04;100.00;99137.06;12205864;19;20117;-85
2024/01/06 16:34:48;;;;;;;34.70;16.03;;;;;;;6.98;100.00;99133.38;12204667;19;20013;-85
2024/01/06 16:38:50;;;;;;;21.33;9.53;;;;;;;6.97;100.00;99144.59;12180820;19;20027;-85
2024/01/06 16:42:52;;;;;;;15.77;8.25;;;;;;;6.91;100.00;99143.66;12203564;19;20011;-85
2024/01/06 16:46:57;;;;;;;25.52;10.80;;;;;;;6.84;100.00;99143.78;12203494;19;20906;-85
2024/01/06 16:50:58;;;;;;;17.10;8.07;;;;;;;6.69;100.00;99146.19;12181534;19;20021;-85
2024/01/06 16:55:00;;;;;;;17.38;8.32;;;;;;;6.63;100.00;99147.13;12205291;19;20011;-85
2024/01/06 16:59:02;;;;;;;17.47;7.13;;;;;;;6.56;100.00;99157.41;12205407;19;20046;-85
2024/01/06 17:03:04;;;;;;;12.45;6.50;;;;;;;6.52;100.00;99148.84;12182983;19;20645;-85
2024/01/06 17:07:06;;;;;;;11.87;5.63;;;;;;;6.36;100.00;99155.84;12201158;19;20011;-84
2024/01/06 17:11:08;;;;;;;15.17;6.57;;;;;;;6.30;100.00;99154.06;12199710;19;20527;-84
2024/01/06 17:15:10;;;;;;;13.02;7.28;;;;;;;6.27;100.00;99164.66;12179691;19;20618;-84
2024/01/06 17:19:12;;;;;;;14.83;6.50;;;;;;;6.23;100.00;99158.84;12197183;19;20010;-85
2024/01/06 17:23:14;;;;;;;18.25;6.47;;;;;;;6.19;100.00;99168.59;12199011;19;20007;-84
2024/01/06 17:27:15;;;;;;;17.75;8.43;;;;;;;6.19;100.00;99173.22;12199305;19;20624;-85
2024/01/06 17:31:17;;;;;;;19.42;8.38;;;;;;;6.13;100.00;99180.50;12197818;19;20058;-85
2024/01/06 17:35:19;;;;;;;17.30;7.32;;;;;;;6.07;100.00;99178.69;12174489;19;20038;-84
2024/01/06 17:39:21;;;;;;;21.35;8.20;;;;;;;6.05;100.00;99178.94;12195112;19;20010;-86
2024/01/06 17:43:23;;;;;;;17.88;7.28;;;;;;;5.99;100.00;99184.50;12198331;19;20019;-85
2024/01/06 17:47:24;;;;;;;22.30;7.68;;;;;;;5.98;100.00;99191.03;12207376;19;20497;-85
2024/01/06 17:51:29;;;;;;;18.60;7.38;;;;;;;5.94;100.00;99194.22;12211187;19;20070;-84
2024/01/06 17:55:31;;;;;;;18.23;6.70;;;;;;;5.94;100.00;99196.97;12218304;19;20014;-84
2024/01/06 17:59:33;;;;;;;15.47;6.80;;;;;;;6.00;100.00;99205.31;12192917;19;20014;-82
2024/01/06 18:03:34;;;;;;;17.63;6.80;;;;;;;6.03;100.00;99202.94;12223093;19;20046;-83
2024/01/06 18:07:36;;;;;;;18.27;6.95;;;;;;;6.01;100.00;99217.91;12223852;19;20010;-83
2024/01/06 18:11:41;;;;;;;14.70;7.18;;;;;;;6.01;100.00;99209.69;12207896;19;20011;-82
2024/01/06 18:15:43;;;;;;;18.35;6.78;;;;;;;6.03;100.00;99207.56;12222105;19;20010;-84
2024/01/06 18:19:44;;;;;;;20.95;8.43;;;;;;;6.08;100.00;99221.38;12215115;19;20054;-83
2024/01/06 18:23:46;;;;;;;24.10;10.07;;;;;;;6.10;100.00;99209.16;12196677;19;19999;-82
2024/01/06 18:27:48;;;;;;;24.30;10.65;;;;;;;6.10;100.00;99219.25;12217915;19;20018;-84
2024/01/06 18:31:50;;;;;;;20.55;8.85;;;;;;;6.11;100.00;99220.91;12215876;19;20006;-85
2024/01/06 18:35:53;;;;;;;21.77;8.50;;;;;;;6.14;100.00;99217.72;12192292;19;20007;-84
2024/01/06 18:39:54;;;;;;;19.50;7.82;;;;;;;6.12;100.00;99222.56;12208584;19;20010;-84
2024/01/06 18:43:56;;;;;;;19.75;7.90;;;;;;;6.15;100.00;99227.56;12210977;19;20020;-84
2024/01/06 18:47:58;;;;;;;23.25;10.63;;;;;;;6.16;100.00;99226.53;12179528;19;20007;-84